sensor_id;sensor_type;location;lat;lon;timestamp;pressure;altitude;pressure_sealevel;temperature
69420;BMP280;71621;52.030;113.516;2024-02-28T00:01:52;94625.03;;;-16.12
69420;BMP280;71621;52.030;113.516;2024-02-28T00:04:55;94623.47;;;-16.09
69420;BMP280;71621;52.030;113.516;2024-02-28T00:08:01;94633.66;;;-16.18
69420;BMP280;71621;52.030;113.516;2024-02-28T00:11:05;94639.22;;;-16.20
69420;BMP280;71621;52.030;113.516;2024-02-28T00:14:08;94641.25;;;-16.15
69420;BMP280;71621;52.030;113.516;2024-02-28T00:17:13;94642.56;;;-16.01
69420;BMP280;71621;52.030;113.516;2024-02-28T00:20:16;94640.16;;;-15.95
69420;BMP280;71621;52.030;113.516;2024-02-28T00:23:20;94648.00;;;-15.90
69420;BMP280;71621;52.030;113.516;2024-02-28T00:26:23;94642.56;;;-15.92
69420;BMP280;71621;52.030;113.516;2024-02-28T00:29:27;94642.72;;;-15.77
69420;BMP280;71621;52.030;113.516;2024-02-28T00:32:30;94647.75;;;-15.64
69420;BMP280;71621;52.030;113.516;2024-02-28T00:35:34;94644.47;;;-15.55
69420;BMP280;71621;52.030;113.516;2024-02-28T00:38:41;94645.72;;;-15.69
69420;BMP280;71621;52.030;113.516;2024-02-28T00:41:45;94647.00;;;-15.74
69420;BMP280;71621;52.030;113.516;2024-02-28T00:44:48;94649.44;;;-15.70
69420;BMP280;71621;52.030;113.516;2024-02-28T00:47:52;94651.31;;;-15.62
69420;BMP280;71621;52.030;113.516;2024-02-28T00:50:57;94655.84;;;-15.57
69420;BMP280;71621;52.030;113.516;2024-02-28T00:54:01;94660.69;;;-15.40
69420;BMP280;71621;52.030;113.516;2024-02-28T00:57:04;94661.59;;;-15.34
69420;BMP280;71621;52.030;113.516;2024-02-28T01:00:08;94657.16;;;-15.34
69420;BMP280;71621;52.030;113.516;2024-02-28T01:03:12;94654.13;;;-15.14
69420;BMP280;71621;52.030;113.516;2024-02-28T01:06:18;94649.16;;;-15.08
69420;BMP280;71621;52.030;113.516;2024-02-28T01:09:22;94654.28;;;-15.08
69420;BMP280;71621;52.030;113.516;2024-02-28T01:12:25;94655.41;;;-15.00
69420;BMP280;71621;52.030;113.516;2024-02-28T01:15:29;94658.66;;;-14.90
69420;BMP280;71621;52.030;113.516;2024-02-28T01:18:32;94663.53;;;-14.92
69420;BMP280;71621;52.030;113.516;2024-02-28T01:21:36;94662.97;;;-15.15
69420;BMP280;71621;52.030;113.516;2024-02-28T01:24:39;94654.72;;;-15.28
69420;BMP280;71621;52.030;113.516;2024-02-28T01:27:43;94653.72;;;-15.30
69420;BMP280;71621;52.030;113.516;2024-02-28T01:30:47;94657.09;;;-15.06
69420;BMP280;71621;52.030;113.516;2024-02-28T01:33:51;94656.13;;;-14.99
69420;BMP280;71621;52.030;113.516;2024-02-28T01:36:54;94656.66;;;-14.95
69420;BMP280;71621;52.030;113.516;2024-02-28T01:39:58;94661.50;;;-14.88
69420;BMP280;71621;52.030;113.516;2024-02-28T01:43:08;94664.34;;;-14.77
69420;BMP280;71621;52.030;113.516;2024-02-28T01:46:25;94658.19;;;-14.70
69420;BMP280;71621;52.030;113.516;2024-02-28T01:49:29;94668.81;;;-14.53
69420;BMP280;71621;52.030;113.516;2024-02-28T01:52:33;94664.59;;;-14.56
69420;BMP280;71621;52.030;113.516;2024-02-28T01:55:37;94658.03;;;-14.57
69420;BMP280;71621;52.030;113.516;2024-02-28T01:58:43;94662.16;;;-14.60
69420;BMP280;71621;52.030;113.516;2024-02-28T02:01:48;94656.19;;;-14.66
69420;BMP280;71621;52.030;113.516;2024-02-28T02:04:51;94656.88;;;-14.56
69420;BMP280;71621;52.030;113.516;2024-02-28T02:07:57;94655.44;;;-14.48
69420;BMP280;71621;52.030;113.516;2024-02-28T02:11:01;94664.84;;;-14.45
69420;BMP280;71621;52.030;113.516;2024-02-28T02:14:05;94659.41;;;-14.47
69420;BMP280;71621;52.030;113.516;2024-02-28T02:17:08;94658.94;;;-14.37
69420;BMP280;71621;52.030;113.516;2024-02-28T02:20:14;94668.91;;;-14.29
69420;BMP280;71621;52.030;113.516;2024-02-28T02:23:18;94669.06;;;-14.42
69420;BMP280;71621;52.030;113.516;2024-02-28T02:26:21;94662.41;;;-14.40
69420;BMP280;71621;52.030;113.516;2024-02-28T02:29:25;94658.22;;;-14.28
69420;BMP280;71621;52.030;113.516;2024-02-28T02:32:30;94655.53;;;-14.09
69420;BMP280;71621;52.030;113.516;2024-02-28T02:35:34;94649.19;;;-13.99
69420;BMP280;71621;52.030;113.516;2024-02-28T02:38:38;94650.41;;;-14.09
69420;BMP280;71621;52.030;113.516;2024-02-28T02:41:41;94654.69;;;-14.06
69420;BMP280;71621;52.030;113.516;2024-02-28T02:44:45;94659.59;;;-13.94
69420;BMP280;71621;52.030;113.516;2024-02-28T02:47:48;94650.06;;;-13.78
69420;BMP280;71621;52.030;113.516;2024-02-28T02:50:52;94660.50;;;-13.58
69420;BMP280;71621;52.030;113.516;2024-02-28T02:53:56;94665.13;;;-13.62
69420;BMP280;71621;52.030;113.516;2024-02-28T02:56:59;94666.06;;;-13.59
69420;BMP280;71621;52.030;113.516;2024-02-28T03:00:03;94655.88;;;-13.69
69420;BMP280;71621;52.030;113.516;2024-02-28T03:03:07;94658.56;;;-13.63
69420;BMP280;71621;52.030;113.516;2024-02-28T03:06:11;94657.41;;;-13.62
69420;BMP280;71621;52.030;113.516;2024-02-28T03:09:14;94655.16;;;-13.45
69420;BMP280;71621;52.030;113.516;2024-02-28T03:12:18;94653.75;;;-13.31
69420;BMP280;71621;52.030;113.516;2024-02-28T03:15:21;94648.94;;;-13.39
69420;BMP280;71621;52.030;113.516;2024-02-28T03:18:25;94645.94;;;-13.37
69420;BMP280;71621;52.030;113.516;2024-02-28T03:21:29;94653.75;;;-13.17
69420;BMP280;71621;52.030;113.516;2024-02-28T03:24:32;94647.75;;;-12.99
69420;BMP280;71621;52.030;113.516;2024-02-28T03:27:39;94647.72;;;-12.84
69420;BMP280;71621;52.030;113.516;2024-02-28T03:30:42;94648.47;;;-12.83
69420;BMP280;71621;52.030;113.516;2024-02-28T03:33:46;94640.88;;;-12.87
69420;BMP280;71621;52.030;113.516;2024-02-28T03:36:50;94638.69;;;-12.79
69420;BMP280;71621;52.030;113.516;2024-02-28T03:39:54;94644.44;;;-12.70
69420;BMP280;71621;52.030;113.516;2024-02-28T03:42:57;94636.47;;;-12.72
69420;BMP280;71621;52.030;113.516;2024-02-28T03:46:02;94638.75;;;-12.59
69420;BMP280;71621;52.030;113.516;2024-02-28T03:49:06;94628.66;;;-12.42
69420;BMP280;71621;52.030;113.516;2024-02-28T03:52:09;94624.16;;;-12.47
69420;BMP280;71621;52.030;113.516;2024-02-28T03:55:13;94625.06;;;-12.50
69420;BMP280;71621;52.030;113.516;2024-02-28T03:58:16;94630.47;;;-12.48
69420;BMP280;71621;52.030;113.516;2024-02-28T04:01:20;94629.75;;;-12.49
69420;BMP280;71621;52.030;113.516;2024-02-28T04:04:23;94634.81;;;-12.54
69420;BMP280;71621;52.030;113.516;2024-02-28T04:07:27;94625.78;;;-12.65
69420;BMP280;71621;52.030;113.516;2024-02-28T04:10:30;94622.06;;;-12.64
69420;BMP280;71621;52.030;113.516;2024-02-28T04:13:34;94624.97;;;-12.56
69420;BMP280;71621;52.030;113.516;2024-02-28T04:16:42;94613.22;;;-12.42
69420;BMP280;71621;52.030;113.516;2024-02-28T04:19:47;94610.94;;;-12.20
69420;BMP280;71621;52.030;113.516;2024-02-28T04:22:50;94602.56;;;-12.15
69420;BMP280;71621;52.030;113.516;2024-02-28T04:25:54;94609.38;;;-11.91
69420;BMP280;71621;52.030;113.516;2024-02-28T04:28:57;94605.94;;;-11.88
69420;BMP280;71621;52.030;113.516;2024-02-28T04:32:02;94602.94;;;-11.81
69420;BMP280;71621;52.030;113.516;2024-02-28T04:35:05;94592.06;;;-11.91
69420;BMP280;71621;52.030;113.516;2024-02-28T04:38:09;94596.25;;;-11.93
69420;BMP280;71621;52.030;113.516;2024-02-28T04:41:12;94594.53;;;-12.02
69420;BMP280;71621;52.030;113.516;2024-02-28T04:44:19;94585.94;;;-11.73
69420;BMP280;71621;52.030;113.516;2024-02-28T04:47:22;94592.81;;;-11.64
69420;BMP280;71621;52.030;113.516;2024-02-28T04:50:37;94594.88;;;-11.68
69420;BMP280;71621;52.030;113.516;2024-02-28T04:53:40;94584.84;;;-11.61
69420;BMP280;71621;52.030;113.516;2024-02-28T04:56:44;94579.91;;;-11.64
69420;BMP280;71621;52.030;113.516;2024-02-28T04:59:49;94586.13;;;-11.50
69420;BMP280;71621;52.030;113.516;2024-02-28T05:02:52;94577.69;;;-11.25
69420;BMP280;71621;52.030;113.516;2024-02-28T05:05:56;94592.81;;;-11.06
69420;BMP280;71621;52.030;113.516;2024-02-28T05:08:59;94586.25;;;-11.07
69420;BMP280;71621;52.030;113.516;2024-02-28T05:12:03;94592.00;;;-11.24
69420;BMP280;71621;52.030;113.516;2024-02-28T05:15:07;94593.06;;;-11.36
69420;BMP280;71621;52.030;113.516;2024-02-28T05:18:10;94594.03;;;-11.33
69420;BMP280;71621;52.030;113.516;2024-02-28T05:21:14;94589.06;;;-11.37
69420;BMP280;71621;52.030;113.516;2024-02-28T05:24:17;94590.63;;;-11.45
69420;BMP280;71621;52.030;113.516;2024-02-28T05:27:21;94590.75;;;-11.34
69420;BMP280;71621;52.030;113.516;2024-02-28T05:30:25;94591.31;;;-11.19
69420;BMP280;71621;52.030;113.516;2024-02-28T05:33:28;94591.41;;;-11.07
69420;BMP280;71621;52.030;113.516;2024-02-28T05:36:32;94593.34;;;-11.02
69420;BMP280;71621;52.030;113.516;2024-02-28T05:39:35;94581.44;;;-10.94
69420;BMP280;71621;52.030;113.516;2024-02-28T05:42:39;94583.53;;;-10.93
69420;BMP280;71621;52.030;113.516;2024-02-28T05:45:43;94580.19;;;-10.99
69420;BMP280;71621;52.030;113.516;2024-02-28T05:48:46;94574.16;;;-10.90
69420;BMP280;71621;52.030;113.516;2024-02-28T05:51:50;94584.03;;;-10.89
69420;BMP280;71621;52.030;113.516;2024-02-28T05:54:53;94575.13;;;-10.88
69420;BMP280;71621;52.030;113.516;2024-02-28T05:57:57;94575.28;;;-10.97
69420;BMP280;71621;52.030;113.516;2024-02-28T06:01:01;94568.63;;;-11.09
69420;BMP280;71621;52.030;113.516;2024-02-28T06:04:04;94569.69;;;-10.90
69420;BMP280;71621;52.030;113.516;2024-02-28T06:07:08;94577.91;;;-10.91
69420;BMP280;71621;52.030;113.516;2024-02-28T06:10:11;94566.34;;;-11.01
69420;BMP280;71621;52.030;113.516;2024-02-28T06:13:15;94575.44;;;-11.06
69420;BMP280;71621;52.030;113.516;2024-02-28T06:16:18;94574.69;;;-11.18
69420;BMP280;71621;52.030;113.516;2024-02-28T06:19:22;94567.00;;;-11.06
69420;BMP280;71621;52.030;113.516;2024-02-28T06:22:25;94567.75;;;-11.00
69420;BMP280;71621;52.030;113.516;2024-02-28T06:25:29;94555.88;;;-10.87
69420;BMP280;71621;52.030;113.516;2024-02-28T06:28:32;94557.69;;;-10.98
69420;BMP280;71621;52.030;113.516;2024-02-28T06:31:36;94561.84;;;-11.06
69420;BMP280;71621;52.030;113.516;2024-02-28T06:34:39;94564.78;;;-10.88
69420;BMP280;71621;52.030;113.516;2024-02-28T06:37:43;94566.59;;;-10.56
69420;BMP280;71621;52.030;113.516;2024-02-28T06:40:52;94566.84;;;-10.54
69420;BMP280;71621;52.030;113.516;2024-02-28T06:43:56;94573.22;;;-10.44
69420;BMP280;71621;52.030;113.516;2024-02-28T06:46:59;94566.72;;;-10.23
69420;BMP280;71621;52.030;113.516;2024-02-28T06:50:03;94570.81;;;-10.11
69420;BMP280;71621;52.030;113.516;2024-02-28T06:53:08;94570.28;;;-10.15
69420;BMP280;71621;52.030;113.516;2024-02-28T06:56:11;94578.94;;;-10.23
69420;BMP280;71621;52.030;113.516;2024-02-28T06:59:15;94579.75;;;-10.54
69420;BMP280;71621;52.030;113.516;2024-02-28T07:02:18;94582.03;;;-10.68
69420;BMP280;71621;52.030;113.516;2024-02-28T07:05:21;94592.41;;;-10.99
69420;BMP280;71621;52.030;113.516;2024-02-28T07:08:25;94587.13;;;-11.16
69420;BMP280;71621;52.030;113.516;2024-02-28T07:11:28;94581.97;;;-11.16
69420;BMP280;71621;52.030;113.516;2024-02-28T07:14:32;94583.31;;;-10.95
69420;BMP280;71621;52.030;113.516;2024-02-28T07:17:36;94583.44;;;-10.67
69420;BMP280;71621;52.030;113.516;2024-02-28T07:20:39;94584.06;;;-10.40
69420;BMP280;71621;52.030;113.516;2024-02-28T07:23:43;94585.84;;;-10.57
69420;BMP280;71621;52.030;113.516;2024-02-28T07:26:46;94586.56;;;-10.63
69420;BMP280;71621;52.030;113.516;2024-02-28T07:29:50;94595.06;;;-10.45
69420;BMP280;71621;52.030;113.516;2024-02-28T07:32:54;94582.63;;;-10.47
69420;BMP280;71621;52.030;113.516;2024-02-28T07:35:58;94592.97;;;-10.47
69420;BMP280;71621;52.030;113.516;2024-02-28T07:39:03;94588.06;;;-10.82
69420;BMP280;71621;52.030;113.516;2024-02-28T07:42:07;94587.34;;;-10.88
69420;BMP280;71621;52.030;113.516;2024-02-28T07:45:10;94587.38;;;-11.14
69420;BMP280;71621;52.030;113.516;2024-02-28T07:48:14;94598.31;;;-11.25
69420;BMP280;71621;52.030;113.516;2024-02-28T07:51:20;94586.91;;;-11.13
69420;BMP280;71621;52.030;113.516;2024-02-28T07:54:25;94601.69;;;-11.13
69420;BMP280;71621;52.030;113.516;2024-02-28T07:57:28;94595.56;;;-11.16
69420;BMP280;71621;52.030;113.516;2024-02-28T08:00:32;94587.94;;;-11.30
69420;BMP280;71621;52.030;113.516;2024-02-28T08:03:38;94597.25;;;-11.39
69420;BMP280;71621;52.030;113.516;2024-02-28T08:06:42;94592.03;;;-11.44
69420;BMP280;71621;52.030;113.516;2024-02-28T08:09:46;94597.13;;;-11.55
69420;BMP280;71621;52.030;113.516;2024-02-28T08:12:49;94589.47;;;-11.44
69420;BMP280;71621;52.030;113.516;2024-02-28T08:15:53;94597.59;;;-11.51
69420;BMP280;71621;52.030;113.516;2024-02-28T08:18:57;94594.00;;;-11.59
69420;BMP280;71621;52.030;113.516;2024-02-28T08:22:01;94600.94;;;-11.45
69420;BMP280;71621;52.030;113.516;2024-02-28T08:25:05;94603.28;;;-11.47
69420;BMP280;71621;52.030;113.516;2024-02-28T08:28:09;94596.19;;;-11.52
69420;BMP280;71621;52.030;113.516;2024-02-28T08:31:13;94606.06;;;-11.51
69420;BMP280;71621;52.030;113.516;2024-02-28T08:34:16;94610.41;;;-11.63
69420;BMP280;71621;52.030;113.516;2024-02-28T08:37:20;94607.13;;;-11.63
69420;BMP280;71621;52.030;113.516;2024-02-28T08:40:24;94604.16;;;-11.56
69420;BMP280;71621;52.030;113.516;2024-02-28T08:43:27;94608.03;;;-11.40
69420;BMP280;71621;52.030;113.516;2024-02-28T08:46:31;94613.28;;;-11.29
69420;BMP280;71621;52.030;113.516;2024-02-28T08:49:35;94614.81;;;-11.43
69420;BMP280;71621;52.030;113.516;2024-02-28T08:52:38;94616.66;;;-11.43
69420;BMP280;71621;52.030;113.516;2024-02-28T08:55:42;94612.25;;;-11.43
69420;BMP280;71621;52.030;113.516;2024-02-28T08:58:46;94620.56;;;-11.53
69420;BMP280;71621;52.030;113.516;2024-02-28T09:01:49;94629.31;;;-11.45
69420;BMP280;71621;52.030;113.516;2024-02-28T09:04:53;94617.28;;;-11.54
69420;BMP280;71621;52.030;113.516;2024-02-28T09:07:59;94621.41;;;-11.62
69420;BMP280;71621;52.030;113.516;2024-02-28T09:11:03;94633.69;;;-11.57
69420;BMP280;71621;52.030;113.516;2024-02-28T09:14:08;94632.38;;;-11.67
69420;BMP280;71621;52.030;113.516;2024-02-28T09:17:11;94633.38;;;-11.85
69420;BMP280;71621;52.030;113.516;2024-02-28T09:20:15;94632.84;;;-11.89
69420;BMP280;71621;52.030;113.516;2024-02-28T09:23:19;94636.63;;;-12.05
69420;BMP280;71621;52.030;113.516;2024-02-28T09:26:22;94643.78;;;-12.15
69420;BMP280;71621;52.030;113.516;2024-02-28T09:29:26;94638.06;;;-12.24
69420;BMP280;71621;52.030;113.516;2024-02-28T09:32:29;94639.91;;;-12.25
69420;BMP280;71621;52.030;113.516;2024-02-28T09:35:33;94652.03;;;-12.46
69420;BMP280;71621;52.030;113.516;2024-02-28T09:38:36;94645.56;;;-12.41
69420;BMP280;71621;52.030;113.516;2024-02-28T09:41:41;94653.34;;;-12.35
69420;BMP280;71621;52.030;113.516;2024-02-28T09:44:44;94654.69;;;-12.40
69420;BMP280;71621;52.030;113.516;2024-02-28T09:47:48;94661.44;;;-12.43
69420;BMP280;71621;52.030;113.516;2024-02-28T09:50:52;94659.75;;;-12.46
69420;BMP280;71621;52.030;113.516;2024-02-28T09:53:56;94658.78;;;-12.48
69420;BMP280;71621;52.030;113.516;2024-02-28T09:57:04;94675.16;;;-12.51
69420;BMP280;71621;52.030;113.516;2024-02-28T10:00:19;94665.22;;;-12.58
69420;BMP280;71621;52.030;113.516;2024-02-28T10:03:23;94680.31;;;-12.66
69420;BMP280;71621;52.030;113.516;2024-02-28T10:06:27;94678.25;;;-12.62
69420;BMP280;71621;52.030;113.516;2024-02-28T10:09:31;94678.78;;;-12.58
69420;BMP280;71621;52.030;113.516;2024-02-28T10:12:34;94684.44;;;-12.54
69420;BMP280;71621;52.030;113.516;2024-02-28T10:15:38;94682.56;;;-12.53
69420;BMP280;71621;52.030;113.516;2024-02-28T10:18:45;94685.84;;;-12.53
69420;BMP280;71621;52.030;113.516;2024-02-28T10:21:50;94696.16;;;-12.53
69420;BMP280;71621;52.030;113.516;2024-02-28T10:24:58;94697.94;;;-12.44
69420;BMP280;71621;52.030;113.516;2024-02-28T10:28:04;94699.28;;;-12.49
69420;BMP280;71621;52.030;113.516;2024-02-28T10:31:08;94709.13;;;-12.47
69420;BMP280;71621;52.030;113.516;2024-02-28T10:34:12;94709.13;;;-12.47
69420;BMP280;71621;52.030;113.516;2024-02-28T10:37:17;94720.13;;;-12.47
69420;BMP280;71621;52.030;113.516;2024-02-28T10:40:20;94717.84;;;-12.45
69420;BMP280;71621;52.030;113.516;2024-02-28T10:43:28;94723.25;;;-12.57
69420;BMP280;71621;52.030;113.516;2024-02-28T10:46:37;94725.13;;;-12.73
69420;BMP280;71621;52.030;113.516;2024-02-28T10:49:43;94729.28;;;-12.75
69420;BMP280;71621;52.030;113.516;2024-02-28T10:52:52;94731.84;;;-12.75
69420;BMP280;71621;52.030;113.516;2024-02-28T10:56:02;94736.66;;;-12.83
69420;BMP280;71621;52.030;113.516;2024-02-28T10:59:08;94727.31;;;-12.95
69420;BMP280;71621;52.030;113.516;2024-02-28T11:02:14;94730.31;;;-12.97
69420;BMP280;71621;52.030;113.516;2024-02-28T11:05:18;94738.03;;;-12.97
69420;BMP280;71621;52.030;113.516;2024-02-28T11:08:23;94740.16;;;-13.10
69420;BMP280;71621;52.030;113.516;2024-02-28T11:11:32;94743.06;;;-13.17
69420;BMP280;71621;52.030;113.516;2024-02-28T11:14:36;94747.94;;;-13.19
69420;BMP280;71621;52.030;113.516;2024-02-28T11:17:40;94748.66;;;-13.19
69420;BMP280;71621;52.030;113.516;2024-02-28T11:20:44;94750.84;;;-13.26
69420;BMP280;71621;52.030;113.516;2024-02-28T11:23:50;94755.22;;;-13.42
69420;BMP280;71621;52.030;113.516;2024-02-28T11:26:54;94759.97;;;-13.49
69420;BMP280;71621;52.030;113.516;2024-02-28T11:29:58;94749.06;;;-13.59
69420;BMP280;71621;52.030;113.516;2024-02-28T11:33:01;94753.06;;;-13.67
69420;BMP280;71621;52.030;113.516;2024-02-28T11:36:08;94754.13;;;-13.74
69420;BMP280;71621;52.030;113.516;2024-02-28T11:39:13;94753.41;;;-13.74
69420;BMP280;71621;52.030;113.516;2024-02-28T11:42:17;94754.31;;;-13.77
69420;BMP280;71621;52.030;113.516;2024-02-28T11:45:21;94758.38;;;-13.71
69420;BMP280;71621;52.030;113.516;2024-02-28T11:48:25;94766.22;;;-13.65
69420;BMP280;71621;52.030;113.516;2024-02-28T11:51:30;94759.50;;;-13.63
69420;BMP280;71621;52.030;113.516;2024-02-28T11:54:34;94771.41;;;-13.50
69420;BMP280;71621;52.030;113.516;2024-02-28T11:57:37;94772.78;;;-13.40
69420;BMP280;71621;52.030;113.516;2024-02-28T12:00:49;94766.59;;;-13.33
69420;BMP280;71621;52.030;113.516;2024-02-28T12:03:53;94777.88;;;-13.31
69420;BMP280;71621;52.030;113.516;2024-02-28T12:06:57;94779.19;;;-13.35
69420;BMP280;71621;52.030;113.516;2024-02-28T12:10:00;94780.19;;;-13.33
69420;BMP280;71621;52.030;113.516;2024-02-28T12:13:05;94781.47;;;-13.38
69420;BMP280;71621;52.030;113.516;2024-02-28T12:16:09;94772.34;;;-13.39
69420;BMP280;71621;52.030;113.516;2024-02-28T12:19:13;94784.91;;;-13.41
69420;BMP280;71621;52.030;113.516;2024-02-28T12:22:18;94784.41;;;-13.45
69420;BMP280;71621;52.030;113.516;2024-02-28T12:25:22;94786.06;;;-13.42
69420;BMP280;71621;52.030;113.516;2024-02-28T12:28:25;94796.09;;;-13.44
69420;BMP280;71621;52.030;113.516;2024-02-28T12:31:29;94798.00;;;-13.53
69420;BMP280;71621;52.030;113.516;2024-02-28T12:34:32;94801.09;;;-13.49
69420;BMP280;71621;52.030;113.516;2024-02-28T12:37:36;94804.13;;;-13.51
69420;BMP280;71621;52.030;113.516;2024-02-28T12:40:39;94802.03;;;-13.62
69420;BMP280;71621;52.030;113.516;2024-02-28T12:43:43;94804.34;;;-13.64
69420;BMP280;71621;52.030;113.516;2024-02-28T12:46:47;94803.22;;;-13.72
69420;BMP280;71621;52.030;113.516;2024-02-28T12:49:50;94804.78;;;-13.74
69420;BMP280;71621;52.030;113.516;2024-02-28T12:52:54;94801.25;;;-13.77
69420;BMP280;71621;52.030;113.516;2024-02-28T12:55:57;94810.41;;;-13.85
69420;BMP280;71621;52.030;113.516;2024-02-28T12:59:01;94803.44;;;-13.94
69420;BMP280;71621;52.030;113.516;2024-02-28T13:02:06;94808.44;;;-13.90
69420;BMP280;71621;52.030;113.516;2024-02-28T13:05:11;94809.53;;;-13.82
69420;BMP280;71621;52.030;113.516;2024-02-28T13:08:16;94814.56;;;-13.88
69420;BMP280;71621;52.030;113.516;2024-02-28T13:11:21;94816.97;;;-13.84
69420;BMP280;71621;52.030;113.516;2024-02-28T13:14:25;94810.09;;;-13.78
69420;BMP280;71621;52.030;113.516;2024-02-28T13:17:28;94819.94;;;-13.76
69420;BMP280;71621;52.030;113.516;2024-02-28T13:20:32;94821.38;;;-13.75
69420;BMP280;71621;52.030;113.516;2024-02-28T13:23:36;94821.38;;;-13.75
69420;BMP280;71621;52.030;113.516;2024-02-28T13:26:40;94820.53;;;-13.81
69420;BMP280;71621;52.030;113.516;2024-02-28T13:29:44;94824.41;;;-13.86
69420;BMP280;71621;52.030;113.516;2024-02-28T13:32:47;94823.53;;;-13.83
69420;BMP280;71621;52.030;113.516;2024-02-28T13:35:52;94826.66;;;-13.88
69420;BMP280;71621;52.030;113.516;2024-02-28T13:38:56;94826.41;;;-13.90
69420;BMP280;71621;52.030;113.516;2024-02-28T13:41:59;94829.31;;;-13.97
69420;BMP280;71621;52.030;113.516;2024-02-28T13:45:04;94833.41;;;-14.00
69420;BMP280;71621;52.030;113.516;2024-02-28T13:48:16;94825.72;;;-14.00
69420;BMP280;71621;52.030;113.516;2024-02-28T13:51:30;94828.97;;;-13.99
69420;BMP280;71621;52.030;113.516;2024-02-28T13:54:33;94838.72;;;-14.13
69420;BMP280;71621;52.030;113.516;2024-02-28T13:57:38;94837.59;;;-14.21
69420;BMP280;71621;52.030;113.516;2024-02-28T14:00:42;94832.16;;;-14.23
69420;BMP280;71621;52.030;113.516;2024-02-28T14:03:47;94831.91;;;-14.25
69420;BMP280;71621;52.030;113.516;2024-02-28T14:06:51;94839.59;;;-14.25
69420;BMP280;71621;52.030;113.516;2024-02-28T14:09:54;94831.34;;;-14.29
69420;BMP280;71621;52.030;113.516;2024-02-28T14:13:00;94841.19;;;-14.27
69420;BMP280;71621;52.030;113.516;2024-02-28T14:16:04;94834.47;;;-14.25
69420;BMP280;71621;52.030;113.516;2024-02-28T14:19:07;94842.72;;;-14.30
69420;BMP280;71621;52.030;113.516;2024-02-28T14:22:11;94841.59;;;-14.29
69420;BMP280;71621;52.030;113.516;2024-02-28T14:25:16;94847.59;;;-14.32
69420;BMP280;71621;52.030;113.516;2024-02-28T14:28:20;94842.47;;;-14.41
69420;BMP280;71621;52.030;113.516;2024-02-28T14:31:24;94844.47;;;-14.45
69420;BMP280;71621;52.030;113.516;2024-02-28T14:34:27;94847.03;;;-14.45
69420;BMP280;71621;52.030;113.516;2024-02-28T14:37:34;94842.47;;;-14.41
69420;BMP280;71621;52.030;113.516;2024-02-28T14:40:38;94848.75;;;-14.42
69420;BMP280;71621;52.030;113.516;2024-02-28T14:43:41;94860.16;;;-14.43
69420;BMP280;71621;52.030;113.516;2024-02-28T14:46:45;94848.03;;;-14.43
69420;BMP280;71621;52.030;113.516;2024-02-28T14:49:48;94854.75;;;-14.45
69420;BMP280;71621;52.030;113.516;2024-02-28T14:52:52;94851.75;;;-14.44
69420;BMP280;71621;52.030;113.516;2024-02-28T14:55:56;94859.31;;;-14.40
69420;BMP280;71621;52.030;113.516;2024-02-28T14:58:59;94862.72;;;-14.34
69420;BMP280;71621;52.030;113.516;2024-02-28T15:02:03;94863.59;;;-14.28
69420;BMP280;71621;52.030;113.516;2024-02-28T15:05:07;94870.56;;;-14.19
69420;BMP280;71621;52.030;113.516;2024-02-28T15:08:11;94862.44;;;-14.18
69420;BMP280;71621;52.030;113.516;2024-02-28T15:11:15;94866.81;;;-14.09
69420;BMP280;71621;52.030;113.516;2024-02-28T15:14:19;94866.09;;;-14.00
69420;BMP280;71621;52.030;113.516;2024-02-28T15:17:22;94859.09;;;-13.91
69420;BMP280;71621;52.030;113.516;2024-02-28T15:20:26;94866.75;;;-13.81
69420;BMP280;71621;52.030;113.516;2024-02-28T15:23:29;94867.34;;;-13.77
69420;BMP280;71621;52.030;113.516;2024-02-28T15:26:34;94867.22;;;-13.83
69420;BMP280;71621;52.030;113.516;2024-02-28T15:29:47;94874.78;;;-13.89
69420;BMP280;71621;52.030;113.516;2024-02-28T15:32:51;94861.53;;;-13.96
69420;BMP280;71621;52.030;113.516;2024-02-28T15:35:55;94867.25;;;-14.01
69420;BMP280;71621;52.030;113.516;2024-02-28T15:38:58;94862.97;;;-14.14
69420;BMP280;71621;52.030;113.516;2024-02-28T15:42:02;94863.41;;;-14.24
69420;BMP280;71621;52.030;113.516;2024-02-28T15:45:06;94875.81;;;-14.23
69420;BMP280;71621;52.030;113.516;2024-02-28T15:48:09;94871.28;;;-14.28
69420;BMP280;71621;52.030;113.516;2024-02-28T15:51:13;94866.16;;;-14.37
69420;BMP280;71621;52.030;113.516;2024-02-28T15:54:16;94871.84;;;-14.51
69420;BMP280;71621;52.030;113.516;2024-02-28T15:57:20;94872.13;;;-14.58
69420;BMP280;71621;52.030;113.516;2024-02-28T16:00:24;94870.28;;;-14.67
69420;BMP280;71621;52.030;113.516;2024-02-28T16:03:27;94875.81;;;-14.78
69420;BMP280;71621;52.030;113.516;2024-02-28T16:06:31;94880.94;;;-14.78
69420;BMP280;71621;52.030;113.516;2024-02-28T16:09:41;94877.66;;;-14.78
69420;BMP280;71621;52.030;113.516;2024-02-28T16:12:46;94880.41;;;-14.82
69420;BMP280;71621;52.030;113.516;2024-02-28T16:15:50;94882.38;;;-14.86
69420;BMP280;71621;52.030;113.516;2024-02-28T16:18:53;94892.03;;;-14.99
69420;BMP280;71621;52.030;113.516;2024-02-28T16:21:57;94888.88;;;-15.03
69420;BMP280;71621;52.030;113.516;2024-02-28T16:25:01;94895.28;;;-15.08
69420;BMP280;71621;52.030;113.516;2024-02-28T16:28:06;94884.00;;;-15.20
69420;BMP280;71621;52.030;113.516;2024-02-28T16:31:09;94892.22;;;-15.25
69420;BMP280;71621;52.030;113.516;2024-02-28T16:34:14;94889.13;;;-15.20
69420;BMP280;71621;52.030;113.516;2024-02-28T16:37:17;94897.66;;;-15.14
69420;BMP280;71621;52.030;113.516;2024-02-28T16:40:21;94891.25;;;-15.18
69420;BMP280;71621;52.030;113.516;2024-02-28T16:43:24;94895.22;;;-15.26
69420;BMP280;71621;52.030;113.516;2024-02-28T16:46:28;94887.25;;;-15.28
69420;BMP280;71621;52.030;113.516;2024-02-28T16:49:31;94893.81;;;-15.18
69420;BMP280;71621;52.030;113.516;2024-02-28T16:52:35;94892.13;;;-15.21
69420;BMP280;71621;52.030;113.516;2024-02-28T16:55:38;94901.88;;;-15.29